Time;durP1;ratioP1;P1;durP2;ratioP2;P2;SDS_P1;SDS_P2;PMS_P1;PMS_P2;Temp;Humidity;BMP_temperature;BMP_pressure;BME280_temperature;BME280_humidity;BME280_pressure;Samples;Min_cycle;Max_cycle;Signal;HPM_P1;HPM_P2
2021/11/07 00:01:26;;;;;;;1999.90;999.90;;;;;;;6.04;100.00;164007.75;5055870;28;20156;-66
2021/11/07 00:04:08;;;;;;;1999.90;999.90;;;;;;;6.01;100.00;163999.53;5055679;28;20088;-66
2021/11/07 00:06:41;;;;;;;1999.90;999.90;;;;;;;6.17;99.90;164042.09;5054997;28;20138;-66
2021/11/07 00:11:42;;;;;;;1999.90;999.90;;;;;;;5.98;100.00;163991.28;5056145;28;20414;-66
2021/11/07 00:14:11;;;;;;;1999.90;999.90;;;;;;;6.08;100.00;164017.41;5055749;28;20105;-66
2021/11/07 00:16:42;;;;;;;1999.90;999.90;;;;;;;6.11;100.00;164027.00;5054939;28;20398;-66
2021/11/07 00:21:51;;;;;;;1999.90;999.90;;;;;;;6.08;100.00;164017.41;5056557;28;20464;-66
2021/11/07 00:32:59;;;;;;;1999.90;999.90;;;;;;;5.68;100.00;163910.25;5042124;28;20084;-66
2021/11/07 00:37:58;;;;;;;1999.90;999.90;;;;;;;5.76;100.00;163932.19;5055429;28;20080;-66
2021/11/07 00:48:16;;;;;;;1999.90;999.90;;;;;;;5.76;100.00;163933.59;5056518;28;20056;-66
2021/11/07 00:53:41;;;;;;;1999.90;999.90;;;;;;;5.94;100.00;163981.66;5054808;28;20498;-66
2021/11/07 01:01:46;;;;;;;1999.90;999.90;;;;;;;5.77;100.00;163934.97;5044015;28;20187;-66
2021/11/07 01:04:14;;;;;;;1999.90;999.90;;;;;;;5.88;100.00;163963.78;5055725;28;20076;-66
2021/11/07 01:06:43;;;;;;;1999.90;999.90;;;;;;;6.15;100.00;164036.63;5051765;28;20083;-66
2021/11/07 01:09:11;;;;;;;1999.90;999.90;;;;;;;6.29;98.96;164075.03;5055392;28;20143;-66
2021/11/07 01:11:38;;;;;;;1999.90;999.90;;;;;;;6.26;99.45;164065.47;5054849;28;20909;-66
2021/11/07 01:14:07;;;;;;;1999.90;999.90;;;;;;;5.94;100.00;163981.66;5053155;28;20084;-66
2021/11/07 01:16:34;;;;;;;1999.90;999.90;;;;;;;5.94;100.00;163981.66;5054616;28;20133;-66
2021/11/07 01:19:01;;;;;;;1999.90;999.90;;;;;;;6.11;100.00;164025.63;5055069;28;20098;-66
2021/11/07 01:21:31;;;;;;;1999.90;999.90;;;;;;;6.23;99.63;164058.56;5054721;28;20079;-66
2021/11/07 01:24:01;;;;;;;1999.90;999.90;;;;;;;5.79;100.00;163940.44;5055148;28;20060;-66
2021/11/07 01:26:41;;;;;;;1999.90;999.90;;;;;;;5.94;100.00;163980.25;5054338;28;20079;-66
2021/11/07 01:31:37;;;;;;;1999.90;999.90;;;;;;;5.78;100.00;163937.72;5054067;28;20076;-66
2021/11/07 01:34:06;;;;;;;1999.90;999.90;;;;;;;5.88;100.00;163963.78;5053881;28;20052;-66
2021/11/07 01:39:16;;;;;;;1999.90;999.90;;;;;;;5.87;100.00;163961.06;5054007;28;20146;-66
2021/11/07 01:44:10;;;;;;;1999.90;999.90;;;;;;;5.81;100.00;163947.31;5052891;28;20076;-66
2021/11/07 01:46:42;;;;;;;1999.90;999.90;;;;;;;5.87;100.00;163962.41;5054902;28;20467;-66
2021/11/07 01:49:12;;;;;;;;;;;;;;;5.79;100.00;163940.44;5054392;28;20175;-66
2021/11/07 01:51:51;;;;;;;1999.90;999.90;;;;;;;5.91;100.00;163973.41;5053680;28;20293;-66
2021/11/07 01:54:27;;;;;;;1999.90;999.90;;;;;;;6.10;99.73;164022.88;5053583;28;20052;-66
2021/11/07 01:56:54;;;;;;;1999.90;999.90;;;;;;;6.21;99.69;164053.09;5052259;28;20357;-66
2021/11/07 01:59:21;;;;;;;1999.90;999.90;;;;;;;5.98;100.00;163992.69;5053277;28;20715;-66
2021/11/07 02:01:53;;;;;;;1999.90;999.90;;;;;;;5.86;100.00;163958.31;5057950;28;20076;-66
2021/11/07 02:04:21;;;;;;;1999.90;999.90;;;;;;;5.98;100.00;163992.69;5057667;28;20059;-66
2021/11/07 02:06:47;;;;;;;1999.90;999.90;;;;;;;5.63;100.00;163899.28;5059012;28;20102;-66
2021/11/07 02:09:14;;;;;;;1999.90;999.90;;;;;;;5.61;100.00;163893.78;5063068;28;20099;-66
2021/11/07 02:11:41;;;;;;;1999.90;999.90;;;;;;;5.85;100.00;163956.94;5061203;28;20044;-66
2021/11/07 02:14:09;;;;;;;1999.90;999.90;;;;;;;5.72;100.00;163921.25;5062483;28;20071;-66
2021/11/07 02:16:38;;;;;;;1999.90;999.90;;;;;;;5.76;100.00;163932.19;5056959;28;20041;-66
2021/11/07 02:19:05;;;;;;;1999.90;999.90;;;;;;;5.74;100.00;163926.72;5057900;28;20057;-66
2021/11/07 02:21:32;;;;;;;1999.90;999.90;;;;;;;5.88;100.00;163965.19;5053030;28;20378;-67
2021/11/07 02:24:00;;;;;;;1999.90;999.90;;;;;;;5.69;100.00;163913.03;5056734;28;20075;-66
2021/11/07 02:26:27;;;;;;;1999.90;999.90;;;;;;;5.70;100.00;163915.72;5059744;28;20377;-66
2021/11/07 02:28:54;;;;;;;1999.90;999.90;;;;;;;5.61;100.00;163893.78;5055275;28;20084;-66
2021/11/07 02:31:20;;;;;;;1999.90;999.90;;;;;;;5.74;100.00;163926.72;5066534;28;20049;-66
2021/11/07 02:33:47;;;;;;;1999.90;999.90;;;;;;;5.45;100.00;163849.88;5057192;28;20083;-66
2021/11/07 02:36:17;;;;;;;1999.90;999.90;;;;;;;5.57;100.00;163881.44;5057459;28;20106;-66
2021/11/07 02:38:45;;;;;;;1999.90;999.90;;;;;;;5.66;100.00;163906.16;5059130;28;20077;-66
2021/11/07 02:41:12;;;;;;;1999.90;999.90;;;;;;;5.77;100.00;163936.31;5054645;28;20496;-66
2021/11/07 02:43:45;;;;;;;1999.90;999.90;;;;;;;5.73;100.00;163925.38;5055535;28;20081;-66
2021/11/07 02:46:16;;;;;;;1999.90;999.90;;;;;;;5.78;100.00;163939.06;5059137;28;20118;-66
2021/11/07 02:48:49;;;;;;;1999.90;999.90;;;;;;;5.75;100.00;163929.50;5056609;28;20391;-66
2021/11/07 02:51:16;;;;;;;1999.90;999.90;;;;;;;5.93;100.00;163977.53;5073165;28;20045;-66
2021/11/07 02:53:43;;;;;;;1999.90;999.90;;;;;;;5.93;100.00;163978.88;5064917;28;20052;-66
2021/11/07 02:56:10;;;;;;;1999.90;999.90;;;;;;;6.20;98.77;164050.34;5067277;28;20055;-66
2021/11/07 02:58:40;;;;;;;1999.90;999.90;;;;;;;6.14;98.76;164033.88;5071721;28;20071;-66
2021/11/07 03:01:07;;;;;;;1999.90;999.90;;;;;;;6.15;98.89;164036.63;5061816;28;20125;-66
2021/11/07 03:03:34;;;;;;;1999.90;999.90;;;;;;;5.98;99.26;163992.69;5055167;28;20076;-66
2021/11/07 03:06:01;;;;;;;1999.90;999.90;;;;;;;5.93;99.68;163977.53;5064638;28;20422;-66
2021/11/07 03:08:29;;;;;;;1999.90;999.90;;;;;;;6.02;99.71;164000.94;5059817;28;20437;-66
2021/11/07 03:10:59;;;;;;;1999.90;999.90;;;;;;;6.52;96.86;164135.50;5073891;28;20040;-66
2021/11/07 03:13:25;;;;;;;1999.90;999.90;;;;;;;6.56;96.39;164145.09;5068574;28;20503;-66
2021/11/07 03:15:52;;;;;;;1999.90;999.90;;;;;;;6.57;96.21;164149.22;5060374;28;20538;-66
2021/11/07 03:18:19;;;;;;;1999.90;999.90;;;;;;;6.42;96.86;164109.41;5064017;28;20438;-66
2021/11/07 03:20:46;;;;;;;1999.90;999.90;;;;;;;6.61;95.94;164160.22;5065203;28;20487;-66
2021/11/07 03:23:19;;;;;;;1999.90;999.90;;;;;;;6.40;97.26;164102.53;5066133;28;20381;-66
2021/11/07 03:25:51;;;;;;;1999.90;999.90;;;;;;;6.41;96.88;164105.28;5070919;28;20102;-66
2021/11/07 03:28:18;;;;;;;1999.90;999.90;;;;;;;6.25;97.87;164062.69;5063313;28;20110;-66
2021/11/07 03:31:10;;;;;;;1999.90;999.90;;;;;;;6.12;98.36;164028.41;5060917;28;20067;-66
2021/11/07 03:33:40;;;;;;;1999.90;999.90;;;;;;;6.12;98.15;164028.41;5054170;28;20049;-66
2021/11/07 03:36:08;;;;;;;1999.90;999.90;;;;;;;5.93;99.01;163978.88;5067266;28;20056;-66
2021/11/07 03:38:36;;;;;;;1999.90;999.90;;;;;;;6.09;98.76;164021.53;5066615;28;20045;-67
2021/11/07 03:41:03;;;;;;;1999.90;999.90;;;;;;;6.08;98.66;164017.41;5066036;28;20048;-66
2021/11/07 03:43:30;;;;;;;1999.90;999.90;;;;;;;5.88;99.58;163965.19;5066464;28;20114;-67
2021/11/07 03:46:00;;;;;;;1999.90;999.90;;;;;;;5.98;99.22;163991.28;5055282;28;20061;-67
2021/11/07 03:48:26;;;;;;;1999.90;999.90;;;;;;;5.93;99.55;163977.53;5059966;28;20087;-67
2021/11/07 03:50:53;;;;;;;1999.90;999.90;;;;;;;5.88;99.63;163965.19;5062807;28;20048;-66
2021/11/07 03:53:20;;;;;;;1999.90;999.90;;;;;;;5.85;99.36;163956.94;5054054;28;20072;-67
2021/11/07 03:55:46;;;;;;;1999.90;999.90;;;;;;;5.98;98.68;163992.69;5057377;28;20495;-67
2021/11/07 03:58:13;;;;;;;1999.90;999.90;;;;;;;6.14;98.15;164033.88;5071713;28;20127;-67
2021/11/07 04:00:40;;;;;;;1999.90;999.90;;;;;;;6.07;97.73;164014.63;5062357;28;20102;-66
2021/11/07 04:03:08;;;;;;;1999.90;999.90;;;;;;;5.92;98.98;163976.13;5060551;28;20509;-67
2021/11/07 04:05:35;;;;;;;1999.90;999.90;;;;;;;6.26;97.60;164066.81;5058306;28;20044;-67
2021/11/07 04:08:02;;;;;;;1999.90;999.90;;;;;;;6.59;95.60;164154.69;5053687;28;20110;-67
2021/11/07 04:10:29;;;;;;;1999.90;999.90;;;;;;;6.54;94.97;164139.63;5064189;28;20105;-67
2021/11/07 04:12:56;;;;;;;1999.90;999.90;;;;;;;6.50;95.67;164130.00;5067643;28;20052;-67
2021/11/07 04:15:25;;;;;;;1999.90;999.90;;;;;;;6.48;95.28;164124.50;5063666;28;20048;-67
2021/11/07 04:17:55;;;;;;;1999.90;999.90;;;;;;;6.68;94.04;164178.06;5065950;28;20106;-67
2021/11/07 04:20:21;;;;;;;1999.90;999.90;;;;;;;6.55;94.43;164142.34;5056924;28;20106;-67
2021/11/07 04:22:49;;;;;;;1999.90;999.90;;;;;;;6.63;94.04;164165.72;5064083;28;20461;-68
2021/11/07 04:25:15;;;;;;;1999.90;999.90;;;;;;;6.64;94.32;164167.06;5063522;28;20045;-67
2021/11/07 04:27:43;;;;;;;1999.90;999.90;;;;;;;6.68;93.72;164179.47;5065393;28;20036;-67
2021/11/07 04:30:11;;;;;;;1999.90;999.90;;;;;;;6.62;94.16;164162.94;5060130;28;20426;-67
2021/11/07 04:32:37;;;;;;;1999.90;999.90;;;;;;;6.49;93.62;164127.22;5057162;28;20049;-67
2021/11/07 04:35:07;;;;;;;1999.90;999.90;;;;;;;6.33;95.04;164086.03;5072238;28;20195;-67
2021/11/07 04:37:38;;;;;;;1999.90;999.90;;;;;;;6.27;95.08;164068.22;5059897;28;20115;-67
2021/11/07 04:40:07;;;;;;;1999.90;999.90;;;;;;;6.11;96.08;164025.63;5058350;28;20268;-66
2021/11/07 04:42:34;;;;;;;1999.90;999.90;;;;;;;5.84;97.39;163952.84;5082736;28;20075;-66
2021/11/07 04:45:00;;;;;;;1999.90;999.90;;;;;;;5.74;97.70;163928.09;5065097;28;20053;-67
2021/11/07 04:47:27;;;;;;;1999.90;999.90;;;;;;;5.77;98.04;163936.31;5054090;28;20342;-66
2021/11/07 04:49:54;;;;;;;1999.90;999.90;;;;;;;5.41;100.00;163838.88;5058439;28;20439;-66
2021/11/07 04:52:21;;;;;;;1999.90;999.90;;;;;;;6.00;97.30;163996.81;5063267;28;20075;-66
2021/11/07 04:54:48;;;;;;;1999.90;999.90;;;;;;;5.92;97.60;163974.78;5067814;28;20048;-66
2021/11/07 04:57:14;;;;;;;1999.90;999.90;;;;;;;5.40;100.00;163836.13;5062717;28;20076;-66
2021/11/07 04:59:41;;;;;;;1999.90;999.90;;;;;;;5.74;98.75;163926.72;5067819;28;20079;-66
2021/11/07 05:02:08;;;;;;;1999.90;999.90;;;;;;;5.71;98.48;163918.50;5053754;28;20056;-66
2021/11/07 05:04:36;;;;;;;1999.90;999.90;;;;;;;5.90;97.71;163969.28;5066046;28;20052;-66
2021/11/07 05:07:03;;;;;;;1999.90;999.90;;;;;;;5.96;97.33;163985.75;5060255;28;20048;-66
2021/11/07 05:09:30;;;;;;;1999.90;999.90;;;;;;;5.77;98.44;163934.97;5057616;28;20056;-66
2021/11/07 05:11:57;;;;;;;1999.90;999.90;;;;;;;5.91;97.92;163972.00;5068705;28;20389;-66
2021/11/07 05:14:24;;;;;;;1999.90;999.90;;;;;;;5.76;97.97;163933.59;5059190;28;20161;-66
2021/11/07 05:16:50;;;;;;;1999.90;999.90;;;;;;;5.61;98.61;163892.38;5065924;28;20435;-66
2021/11/07 05:19:18;;;;;;;1999.90;999.90;;;;;;;5.34;100.00;163821.03;5060598;28;20099;-66
2021/11/07 05:21:44;;;;;;;1999.90;999.90;;;;;;;5.50;99.50;163863.56;5054453;28;20049;-66
2021/11/07 05:24:11;;;;;;;1999.90;999.90;;;;;;;5.32;99.82;163814.19;5055980;28;20049;-66
2021/11/07 05:26:37;;;;;;;1999.90;999.90;;;;;;;5.31;100.00;163812.78;5061838;28;20130;-67
2021/11/07 05:29:05;;;;;;;1999.90;999.90;;;;;;;5.39;100.00;163833.38;5058165;28;20087;-66
2021/11/07 05:31:33;;;;;;;1999.90;999.90;;;;;;;5.25;100.00;163796.31;5067493;28;20053;-66
2021/11/07 05:34:00;;;;;;;1999.90;999.90;;;;;;;5.19;100.00;163779.88;5061573;28;20105;-66
2021/11/07 05:36:26;;;;;;;1999.90;999.90;;;;;;;5.09;100.00;163753.78;5065006;28;20787;-66
2021/11/07 05:38:53;;;;;;;1999.90;999.90;;;;;;;5.25;100.00;163797.69;5058977;28;20079;-66
2021/11/07 05:41:20;;;;;;;1999.90;999.90;;;;;;;5.34;100.00;163819.66;5053729;28;20049;-66
2021/11/07 05:43:47;;;;;;;1999.90;999.90;;;;;;;5.08;100.00;163751.06;5063695;28;20729;-66
2021/11/07 05:46:13;;;;;;;1999.90;999.90;;;;;;;5.44;100.00;163847.13;5058285;28;20087;-66
2021/11/07 05:48:40;;;;;;;1999.90;999.90;;;;;;;5.53;99.98;163871.81;5063782;28;20079;-66
2021/11/07 05:51:07;;;;;;;1999.90;999.90;;;;;;;5.28;100.00;163805.97;5062437;28;20053;-66
2021/11/07 05:53:34;;;;;;;1999.90;999.90;;;;;;;5.14;100.00;163766.16;5060261;28;20067;-66
2021/11/07 05:56:01;;;;;;;1999.90;999.90;;;;;;;5.37;100.00;163827.88;5054909;28;20425;-66
2021/11/07 05:58:28;;;;;;;1999.90;999.90;;;;;;;5.46;100.00;163852.59;5061997;28;20047;-66
2021/11/07 06:00:55;;;;;;;1999.90;999.90;;;;;;;5.55;100.00;163877.34;5058174;28;20087;-66
2021/11/07 06:03:23;;;;;;;1999.90;999.90;;;;;;;5.03;100.00;163737.31;5050936;28;20115;-66
2021/11/07 06:05:49;;;;;;;1999.90;999.90;;;;;;;5.27;100.00;163803.19;5065498;28;20110;-66
2021/11/07 06:08:16;;;;;;;1999.90;999.90;;;;;;;5.35;100.00;163822.44;5059954;28;20044;-66
2021/11/07 06:10:42;;;;;;;1999.90;999.90;;;;;;;5.33;100.00;163818.31;5050803;28;20052;-66
2021/11/07 06:13:09;;;;;;;1999.90;999.90;;;;;;;5.51;100.00;163866.34;5063993;28;20101;-66
2021/11/07 06:15:36;;;;;;;1999.90;999.90;;;;;;;5.35;100.00;163822.44;5063709;28;20130;-66
2021/11/07 06:18:02;;;;;;;1999.90;999.90;;;;;;;5.31;100.00;163812.78;5067958;28;20040;-66
2021/11/07 06:20:29;;;;;;;1999.90;999.90;;;;;;;5.41;100.00;163840.25;5063753;28;20049;-66
2021/11/07 06:22:56;;;;;;;1999.90;999.90;;;;;;;5.17;100.00;163775.75;5055088;28;20076;-66
2021/11/07 06:25:23;;;;;;;1999.90;999.90;;;;;;;5.38;100.00;163832.00;5061065;28;20084;-66
2021/11/07 06:27:49;;;;;;;1999.90;999.90;;;;;;;5.35;100.00;163822.44;5063135;28;20464;-66
2021/11/07 06:30:16;;;;;;;1999.90;999.90;;;;;;;5.47;100.00;163855.34;5063940;28;20053;-66
2021/11/07 06:32:42;;;;;;;1999.90;999.90;;;;;;;5.38;100.00;163830.66;5068743;28;20397;-66
2021/11/07 06:35:11;;;;;;;1999.90;999.90;;;;;;;5.36;100.00;163825.13;5061507;28;20126;-66
2021/11/07 06:37:38;;;;;;;1999.90;999.90;;;;;;;5.39;100.00;163834.78;5053998;28;20111;-66
2021/11/07 06:40:06;;;;;;;1999.90;999.90;;;;;;;5.46;100.00;163852.59;5070710;28;20076;-66
2021/11/07 06:42:33;;;;;;;1999.90;999.90;;;;;;;5.68;100.00;163910.25;5063319;28;20343;-66
2021/11/07 06:44:59;;;;;;;1999.90;999.90;;;;;;;5.80;100.00;163944.53;5068525;28;20319;-66
2021/11/07 06:47:26;;;;;;;1999.90;999.90;;;;;;;5.78;100.00;163937.72;5059896;28;20044;-66
2021/11/07 06:49:53;;;;;;;1999.90;999.90;;;;;;;5.92;100.00;163974.78;5061670;28;20045;-66
2021/11/07 06:52:20;;;;;;;1999.90;999.90;;;;;;;5.94;100.00;163980.25;5055656;28;20652;-66
2021/11/07 06:54:48;;;;;;;1999.90;999.90;;;;;;;6.16;100.00;164039.34;5062351;28;20052;-66
2021/11/07 06:57:15;;;;;;;1999.90;999.90;;;;;;;6.11;100.00;164027.00;5060963;28;20052;-66
2021/11/07 06:59:42;;;;;;;1999.90;999.90;;;;;;;6.37;100.00;164094.28;5064327;28;20106;-67
2021/11/07 07:02:09;;;;;;;1999.90;999.90;;;;;;;6.32;100.00;164081.94;5059775;28;20053;-67
2021/11/07 07:04:35;;;;;;;1999.90;999.90;;;;;;;6.21;100.00;164053.09;5058142;28;20113;-66
2021/11/07 07:07:02;;;;;;;1999.90;999.90;;;;;;;6.34;100.00;164088.81;5061159;28;20091;-66
2021/11/07 07:09:32;;;;;;;1999.90;999.90;;;;;;;6.63;98.94;164165.72;5060709;28;20288;-67
2021/11/07 07:12:27;;;;;;;1999.90;999.90;;;;;;;6.86;98.31;164227.53;5056864;28;20449;-66
2021/11/07 07:28:56;;;;;;;1999.90;999.90;;;;;;;6.67;99.22;164176.72;5061463;28;20055;-67
2021/11/07 07:36:25;;;;;;;1999.90;999.90;;;;;;;6.84;98.29;164222.03;5079144;28;20060;-67
2021/11/07 07:38:53;;;;;;;1999.90;999.90;;;;;;;6.93;98.17;164245.38;5066491;28;20759;-67
2021/11/07 07:41:19;;;;;;;1999.90;999.90;;;;;;;6.81;98.92;164212.44;5056653;28;20140;-67
2021/11/07 07:43:46;;;;;;;1999.90;999.90;;;;;;;6.97;99.03;164256.38;5063040;28;20052;-67
2021/11/07 07:46:13;;;;;;;1999.90;999.90;;;;;;;7.15;98.13;164303.13;5063229;28;20089;-67
2021/11/07 07:48:43;;;;;;;1999.90;999.90;;;;;;;7.11;98.76;164292.09;5065921;28;20041;-67
2021/11/07 07:51:12;;;;;;;1999.90;999.90;;;;;;;7.79;95.96;164473.53;5063342;28;20049;-67
2021/11/07 07:53:40;;;;;;;1999.90;999.90;;;;;;;7.82;95.46;164481.78;5054897;28;20048;-67
2021/11/07 07:56:08;;;;;;;1999.90;999.90;;;;;;;7.44;97.44;164381.41;5067021;28;20086;-67
2021/11/07 07:58:37;;;;;;;1999.90;999.90;;;;;;;8.07;94.66;164550.50;5064866;28;20499;-67
2021/11/07 08:01:06;;;;;;;1999.90;999.90;;;;;;;8.09;93.88;164556.00;5062207;28;20053;-67
2021/11/07 08:03:34;;;;;;;1999.90;999.90;;;;;;;8.34;93.71;164622.00;5065672;28;20056;-66
2021/11/07 08:06:01;;;;;;;1999.90;999.90;;;;;;;8.37;92.24;164628.91;5057721;28;20118;-67
2021/11/07 08:08:27;;;;;;;1999.90;999.90;;;;;;;8.54;92.33;164674.31;5065567;28;20041;-67
2021/11/07 08:10:54;;;;;;;1999.90;999.90;;;;;;;8.61;91.48;164694.94;5062013;28;20354;-66
2021/11/07 08:13:21;;;;;;;1999.90;999.90;;;;;;;8.31;91.25;164613.78;5057834;28;20137;-67
2021/11/07 08:15:47;;;;;;;1999.90;999.90;;;;;;;7.99;93.09;164527.13;5058533;28;20049;-67
2021/11/07 08:18:14;;;;;;;1999.90;999.90;;;;;;;7.80;94.36;164476.25;5061388;28;20091;-67
2021/11/07 08:20:44;;;;;;;1999.90;999.90;;;;;;;7.83;94.43;164485.91;5059854;28;20053;-66
2021/11/07 08:23:10;;;;;;;1999.90;999.90;;;;;;;7.96;94.02;164520.25;5068094;28;20108;-66
2021/11/07 08:25:37;;;;;;;1999.90;999.90;;;;;;;8.04;93.15;164540.84;5063085;28;20555;-66
2021/11/07 08:28:05;;;;;;;1999.90;999.90;;;;;;;7.85;93.79;164490.03;5066841;28;20072;-66
2021/11/07 08:30:40;;;;;;;1999.90;999.90;;;;;;;7.85;94.04;164491.38;5064160;28;20094;-66
2021/11/07 08:33:08;;;;;;;1999.90;999.90;;;;;;;8.25;92.34;164598.63;5064178;28;20096;-67
2021/11/07 08:35:39;;;;;;;1999.90;999.90;;;;;;;8.26;91.95;164601.41;5052699;28;20316;-67
2021/11/07 08:38:15;;;;;;;1999.90;999.90;;;;;;;8.44;91.26;164649.59;5061787;28;20098;-67
2021/11/07 08:41:03;;;;;;;1999.90;999.90;;;;;;;9.00;89.96;164798.13;5060878;28;20051;-66
2021/11/07 09:00:13;;;;;;;1999.90;999.90;;;;;;;9.06;88.68;164813.25;5060465;28;20115;-67
2021/11/07 09:05:33;;;;;;;1999.90;999.90;;;;;;;8.41;91.59;164641.28;5052421;28;20049;-67
2021/11/07 09:10:35;;;;;;;1999.90;999.90;;;;;;;9.15;88.95;164838.03;5066885;28;20053;-67
2021/11/07 09:13:06;;;;;;;1999.90;999.90;;;;;;;9.49;87.90;164930.19;5060360;28;20349;-67
2021/11/07 09:15:34;;;;;;;1999.90;999.90;;;;;;;8.74;90.01;164729.34;5060505;28;20079;-68
2021/11/07 09:18:01;;;;;;;1999.90;999.90;;;;;;;8.93;90.14;164778.84;5067883;28;20056;-67
2021/11/07 09:20:55;;;;;;;1999.90;999.90;;;;;;;9.06;89.93;164813.25;5061873;28;20382;-68
2021/11/07 09:26:04;;;;;;;1999.90;999.90;;;;;;;9.35;89.19;164891.72;5050670;28;20052;-67
2021/11/07 09:33:47;;;;;;;1999.90;999.90;;;;;;;9.96;87.66;165054.06;5053930;28;20129;-68
2021/11/07 09:36:21;;;;;;;1999.90;999.90;;;;;;;9.94;86.98;165049.94;5051758;28;20056;-67
2021/11/07 09:38:51;;;;;;;1999.90;999.90;;;;;;;10.38;85.54;165167.06;5051730;28;20084;-67
2021/11/07 09:46:41;;;;;;;1999.90;999.90;;;;;;;9.68;87.38;164981.13;5051060;28;20083;-68
2021/11/07 09:49:17;;;;;;;1999.90;999.90;;;;;;;9.75;86.84;164999.06;5052824;28;20052;-67
2021/11/07 09:52:01;;;;;;;1999.90;999.90;;;;;;;10.11;86.59;165094.00;5052818;28;20052;-68
2021/11/07 09:54:30;;;;;;;1999.90;999.90;;;;;;;10.04;87.54;165076.13;5051217;28;20103;-68
2021/11/07 09:56:58;;;;;;;1999.90;999.90;;;;;;;10.03;86.20;165074.78;5053209;28;20063;-68
2021/11/07 09:59:26;;;;;;;1999.90;999.90;;;;;;;9.59;87.07;164955.03;5052693;28;20502;-67
2021/11/07 10:02:02;;;;;;;1999.90;999.90;;;;;;;9.53;88.73;164939.88;5050802;28;20373;-68
2021/11/07 10:04:33;;;;;;;1999.90;999.90;;;;;;;9.57;88.74;164949.47;5054772;28;20537;-67
2021/11/07 10:07:13;;;;;;;1999.90;999.90;;;;;;;9.21;89.30;164854.53;5054237;28;20072;-67
2021/11/07 10:09:41;;;;;;;1999.90;999.90;;;;;;;9.48;89.24;164927.50;5051981;28;20427;-67
2021/11/07 10:12:18;;;;;;;1999.90;999.90;;;;;;;9.51;88.23;164935.75;5053119;28;20061;-66
2021/11/07 10:14:46;;;;;;;1999.90;999.90;;;;;;;9.52;88.15;164938.47;5053420;28;20084;-65
2021/11/07 10:17:45;;;;;;;1999.90;999.90;;;;;;;9.67;87.44;164977.00;5052255;28;20533;-65
2021/11/07 10:20:36;;;;;;;1999.90;999.90;;;;;;;9.85;88.37;165025.19;5052345;28;20053;-67
2021/11/07 10:23:19;;;;;;;1999.90;999.90;;;;;;;9.76;87.79;165000.41;5053666;28;20110;-66
2021/11/07 10:25:57;;;;;;;1999.90;999.90;;;;;;;9.77;86.82;165004.53;5054879;28;20400;-66
2021/11/07 10:28:35;;;;;;;1999.90;999.90;;;;;;;9.59;87.87;164955.03;5053095;28;20087;-66
2021/11/07 10:31:23;;;;;;;1999.90;999.90;;;;;;;9.73;87.51;164993.53;5052834;28;20399;-66
2021/11/07 10:52:44;;;;;;;1999.90;999.90;;;;;;;9.16;85.68;164842.16;5053053;28;20465;-66
2021/11/07 10:55:21;;;;;;;1999.90;999.90;;;;;;;9.06;85.83;164814.63;5050848;28;20144;-67
2021/11/07 10:57:51;;;;;;;1999.90;999.90;;;;;;;9.24;86.14;164861.41;5051078;28;20075;-67
2021/11/07 11:00:35;;;;;;;1999.90;999.90;;;;;;;9.65;85.34;164971.53;5050281;28;20162;-67
2021/11/07 11:03:04;;;;;;;1999.90;999.90;;;;;;;9.44;85.64;164916.47;5052085;28;20059;-67
2021/11/07 11:05:43;;;;;;;1999.90;999.90;;;;;;;9.24;86.92;164862.78;5049444;28;20175;-67
2021/11/07 11:08:22;;;;;;;1999.90;999.90;;;;;;;9.21;87.30;164853.16;5052112;28;20396;-67
2021/11/07 11:16:23;;;;;;;1999.90;999.90;;;;;;;9.69;86.02;164982.50;5057868;28;20064;-67
2021/11/07 11:19:09;;;;;;;1999.90;999.90;;;;;;;9.83;85.36;165021.06;5060385;28;20122;-67
2021/11/07 11:36:18;;;;;;;1999.90;999.90;;;;;;;9.04;88.82;164807.78;5057427;28;19928;-66
2021/11/07 11:39:23;;;;;;;1999.90;999.90;;;;;;;9.39;88.29;164901.31;5058172;28;20080;-67
2021/11/07 11:41:54;;;;;;;1999.90;999.90;;;;;;;9.50;87.65;164932.97;5054414;28;20052;-66
2021/11/07 11:44:23;;;;;;;1999.90;999.90;;;;;;;9.22;88.63;164855.94;5056290;28;20057;-67
2021/11/07 11:47:12;;;;;;;1999.90;999.90;;;;;;;9.12;89.05;164829.75;5056126;28;20732;-67
2021/11/07 11:52:36;;;;;;;1999.90;999.90;;;;;;;9.49;86.93;164930.19;5055572;28;20153;-66
2021/11/07 11:55:18;;;;;;;1999.90;999.90;;;;;;;9.54;86.00;164942.59;5054490;28;20130;-67
2021/11/07 11:57:52;;;;;;;1999.90;999.90;;;;;;;9.27;85.76;164871.03;5056492;28;20102;-67
2021/11/07 12:00:45;;;;;;;1999.90;999.90;;;;;;;9.62;83.09;164963.28;5056030;28;20636;-68
2021/11/07 12:03:42;;;;;;;1999.90;999.90;;;;;;;9.44;84.12;164915.09;5054567;28;20181;-65
2021/11/07 12:06:36;;;;;;;1999.90;999.90;;;;;;;9.21;83.98;164854.53;5054523;28;20078;-66
2021/11/07 12:09:34;;;;;;;1999.90;999.90;;;;;;;9.22;83.65;164855.94;5039903;28;20146;-65
2021/11/07 12:12:18;;;;;;;1999.90;999.90;;;;;;;9.63;82.34;164967.41;5055858;28;21609;-65
2021/11/07 12:15:08;;;;;;;1999.90;999.90;;;;;;;9.85;81.79;165025.19;5056316;28;20098;-66
2021/11/07 12:17:39;;;;;;;1999.90;999.90;;;;;;;9.87;80.63;165032.06;5054429;28;20052;-66
2021/11/07 12:20:30;;;;;;;1999.90;999.90;;;;;;;9.72;81.03;164990.81;5056278;28;20548;-67
2021/11/07 12:23:30;;;;;;;1999.90;999.90;;;;;;;9.76;80.97;165001.78;5055670;28;20079;-67
2021/11/07 12:26:18;;;;;;;1999.90;999.90;;;;;;;9.50;80.55;164931.63;5055002;28;20102;-68
2021/11/07 12:28:46;;;;;;;1999.90;999.90;;;;;;;9.79;79.98;165010.03;5055000;28;20098;-68
2021/11/07 12:31:12;;;;;;;1999.90;999.90;;;;;;;9.59;80.33;164955.03;5053695;28;20143;-67
2021/11/07 12:34:26;;;;;;;1999.90;999.90;;;;;;;9.89;80.14;165036.22;5053306;28;20528;-68
2021/11/07 12:42:29;;;;;;;1999.90;999.90;;;;;;;9.47;80.37;164924.72;5055623;28;20345;-67
2021/11/07 12:45:27;;;;;;;1999.90;999.90;;;;;;;9.61;79.51;164961.84;5052796;28;20290;-68
2021/11/07 12:48:01;;;;;;;1999.90;999.90;;;;;;;10.21;78.00;165121.53;5054960;28;20106;-68
2021/11/07 12:50:27;;;;;;;1999.90;999.90;;;;;;;10.22;77.30;165125.66;5054849;28;20143;-68
2021/11/07 12:52:56;;;;;;;1999.90;999.90;;;;;;;9.63;79.63;164966.00;5053267;28;20060;-68
2021/11/07 12:55:43;;;;;;;1999.90;999.90;;;;;;;9.73;79.71;164992.16;5052268;28;20052;-66
2021/11/07 12:58:10;;;;;;;1999.90;999.90;;;;;;;9.65;80.02;164971.53;5049481;28;20060;-66
2021/11/07 13:00:37;;;;;;;1999.90;999.90;;;;;;;9.27;82.26;164869.66;5054645;28;20045;-66
2021/11/07 13:03:09;;;;;;;1999.90;999.90;;;;;;;9.50;81.71;164931.63;5052715;28;20068;-66
2021/11/07 13:05:39;;;;;;;1999.90;999.90;;;;;;;9.65;80.80;164972.88;5054203;28;20055;-66
2021/11/07 13:08:09;;;;;;;1999.90;999.90;;;;;;;9.52;81.59;164938.47;5050708;28;20133;-66
2021/11/07 13:18:28;;;;;;;1999.90;999.90;;;;;;;9.63;80.92;164966.00;5054365;28;20052;-67
2021/11/07 13:28:46;;;;;;;1999.90;999.90;;;;;;;10.01;80.06;165067.88;5054970;28;20152;-66
2021/11/07 13:33:42;;;;;;;1999.90;999.90;;;;;;;9.57;82.12;164950.91;5054498;28;20137;-66
2021/11/07 13:36:11;;;;;;;1999.90;999.90;;;;;;;9.61;82.32;164960.50;5055761;28;20157;-67
2021/11/07 13:38:44;;;;;;;1999.90;999.90;;;;;;;9.58;82.80;164953.59;5054540;28;20460;-66
2021/11/07 13:41:15;;;;;;;1999.90;999.90;;;;;;;9.68;82.72;164981.13;5053671;28;20055;-66
2021/11/07 13:43:47;;;;;;;1999.90;999.90;;;;;;;9.66;82.80;164974.25;5055419;28;20105;-66
2021/11/07 13:46:15;;;;;;;1999.90;999.90;;;;;;;9.50;83.10;164932.97;5054932;28;20121;-66
2021/11/07 13:48:42;;;;;;;1999.90;999.90;;;;;;;9.30;84.19;164877.91;5054961;28;20115;-66